[ EDKA 191520Z AUTO 27008KT 9999 ///////// 17/13 Q1011 ]
Windrichtung (graph.)
Inst: 265° 7 kt
2min: 278° 7.1 kt
10min: 274° 7.8 kt
Extrem: 241° – 301° 11.3 kt – 4.3 kt
Crosswind: -3.3 kt
Luftdruck (graph.)
QNH: 1011 hPa Temp: 17.1 °C
QNH: 29.85 inHg DewP: 12.5 °C
QFE: 988 hPa Hum: 74.0 %
QFE: 29.19 inHg